Etusivu
METAR-TAF:

METAR-TAF

Lentoasemat :

Saint-Étienne, Ranska

Leveyspiiri: 45-32N, Pituuspiiri: 004-18E, korkeus merenpinnasta: 404 m

Tämänhetkinen sää

Tämä raportti tehtiin 38 minuuttia sitten, kello 01.30 UTC
Tuuli 8 kn etelästä
Lämpötila 16°C
Kosteus 68%
Ilmanpaine 1008 hPa
Näkyvyys 10 km tai enemmän
Muutamia pilviä 3500 ft:n korkeudessa
Hajonneita pilviä 4400 ft:n korkeudessa
Hajonneita pilviä 5000 ft:n korkeudessa

METAR: LFMH 060130Z AUTO 18008KT 9999 FEW035 BKN044 BKN050 16/10 Q1008

Aika: 04:08 (02:08 UTC)


TAF: puuttuu

Säähavainnot ja -ennusteet yli 4000 lentoasemalta (METAR- ja TAF-raportit).

Käytössä olevat sääasemat on merkitty karttaan keltaisilla ja punaisilla pisteillä.

Aseta hiiri pisteen päälle nähdäksesi sääaseman nimen.

Klikkaa sitten nähdäksesi säähavainnot ja -ennusteet.

Kartan vaihtaminen: klikkaa mustalla rastilla varustettuja vihreitä pisteitä, niin voit zoomata sisään; viivalla varustettua vihreää pistettä, niin voit zoomata ulos tai vihreitä nuolia, niin pääset viereisille kartoille.


METAR-TAF: